createdAt,value
2022-11-18T00:01:41.071Z,99.90
2022-11-18T00:04:09.912Z,99.90
2022-11-18T00:06:38.541Z,99.90
2022-11-18T00:09:07.477Z,99.90
2022-11-18T00:11:55.334Z,99.90
2022-11-18T00:14:27.687Z,99.90
2022-11-18T00:16:58.150Z,99.90
2022-11-18T00:19:28.844Z,99.90
2022-11-18T00:21:57.924Z,99.90
2022-11-18T00:24:27.514Z,99.90
2022-11-18T00:26:58.927Z,99.90
2022-11-18T00:29:28.806Z,99.90
2022-11-18T00:31:58.440Z,99.90
2022-11-18T00:34:28.178Z,99.90
2022-11-18T00:36:56.922Z,99.90
2022-11-18T00:39:26.245Z,99.90
2022-11-18T00:42:13.512Z,99.90
2022-11-18T00:44:42.178Z,99.90
2022-11-18T00:47:10.868Z,99.90
2022-11-18T00:49:39.580Z,99.90
2022-11-18T00:52:08.369Z,99.90
2022-11-18T00:54:37.431Z,99.90
2022-11-18T00:57:07.817Z,99.90
2022-11-18T00:59:36.505Z,99.90
2022-11-18T01:02:05.179Z,99.90
2022-11-18T01:04:34.026Z,99.90
2022-11-18T01:07:02.814Z,99.90
2022-11-18T01:09:31.621Z,99.90
2022-11-18T01:12:17.725Z,99.90
2022-11-18T01:14:47.832Z,99.90
2022-11-18T01:17:16.911Z,99.90
2022-11-18T01:19:45.593Z,99.90
2022-11-18T01:22:14.410Z,99.90
2022-11-18T01:24:43.320Z,99.90
2022-11-18T01:27:12.157Z,99.90
2022-11-18T01:29:40.892Z,99.90
2022-11-18T01:32:24.641Z,99.90
2022-11-18T01:34:53.943Z,99.90
2022-11-18T01:37:22.712Z,99.90
2022-11-18T01:39:51.370Z,99.90
2022-11-18T01:42:20.233Z,99.90
2022-11-18T01:44:59.948Z,99.90
2022-11-18T01:47:33.506Z,99.90
2022-11-18T01:50:03.064Z,99.90
2022-11-18T01:52:32.771Z,99.90
2022-11-18T01:55:07.559Z,99.90
2022-11-18T01:57:36.484Z,99.90
2022-11-18T02:00:08.061Z,99.90
2022-11-18T02:02:39.414Z,99.90
2022-11-18T02:05:10.784Z,99.90
2022-11-18T02:07:43.044Z,99.90
2022-11-18T02:10:20.699Z,99.90
2022-11-18T02:12:50.826Z,99.90
2022-11-18T02:15:22.800Z,99.90
2022-11-18T02:18:00.153Z,99.90
2022-11-18T02:20:34.291Z,99.90
2022-11-18T02:23:41.823Z,99.90
2022-11-18T02:26:43.159Z,99.90
2022-11-18T02:29:17.565Z,99.90
2022-11-18T02:31:53.899Z,99.90
2022-11-18T02:34:33.767Z,99.90
2022-11-18T02:37:08.108Z,99.90
2022-11-18T02:39:40.861Z,99.90
2022-11-18T02:42:13.888Z,99.90
2022-11-18T02:44:47.569Z,99.90
2022-11-18T02:47:18.714Z,99.90
2022-11-18T02:49:50.752Z,99.90
2022-11-18T02:52:21.713Z,99.90
2022-11-18T02:54:52.580Z,99.90
2022-11-18T02:57:23.609Z,99.90
2022-11-18T02:59:53.993Z,99.90
2022-11-18T03:02:23.875Z,99.90
2022-11-18T03:04:56.875Z,99.90
2022-11-18T03:07:30.649Z,99.90
2022-11-18T03:10:01.307Z,99.90
2022-11-18T03:12:38.385Z,99.90
2022-11-18T03:15:15.630Z,99.90
2022-11-18T03:17:50.339Z,99.90
2022-11-18T03:20:24.087Z,99.90
2022-11-18T03:22:56.378Z,99.90
2022-11-18T03:25:33.096Z,99.90
2022-11-18T03:28:08.681Z,99.90
2022-11-18T03:30:43.597Z,99.90
2022-11-18T03:33:18.911Z,99.90
2022-11-18T03:35:51.383Z,99.90
2022-11-18T03:38:28.532Z,99.90
2022-11-18T03:41:01.889Z,99.90
2022-11-18T03:43:36.034Z,99.90
2022-11-18T03:46:10.211Z,99.90
2022-11-18T03:48:46.138Z,99.90
2022-11-18T03:51:19.987Z,99.90
2022-11-18T03:53:55.329Z,99.90
2022-11-18T03:56:27.978Z,99.90
2022-11-18T03:59:01.945Z,99.90
2022-11-18T04:01:38.661Z,99.90
2022-11-18T04:04:07.704Z,99.90
2022-11-18T04:06:41.635Z,99.90
2022-11-18T04:09:13.796Z,99.90
2022-11-18T04:12:04.789Z,99.90
2022-11-18T04:14:35.947Z,99.90
2022-11-18T04:17:11.178Z,99.90
2022-11-18T04:19:39.852Z,99.90
2022-11-18T04:22:09.775Z,99.90
2022-11-18T04:24:38.693Z,99.90
2022-11-18T04:27:08.477Z,99.90
2022-11-18T04:29:37.222Z,99.90
2022-11-18T04:32:07.952Z,99.90
2022-11-18T04:34:36.887Z,99.90
2022-11-18T04:37:05.745Z,99.90
2022-11-18T04:39:34.488Z,99.90
2022-11-18T04:42:03.311Z,99.90
2022-11-18T04:44:34.006Z,99.90
2022-11-18T04:47:04.442Z,99.90
2022-11-18T04:49:35.504Z,99.90
2022-11-18T04:52:05.079Z,99.90
2022-11-18T04:54:33.816Z,99.90
2022-11-18T04:57:02.473Z,99.90
2022-11-18T04:59:31.763Z,99.90
2022-11-18T05:02:01.237Z,99.90
2022-11-18T05:04:32.128Z,99.90
2022-11-18T05:07:03.858Z,99.90
2022-11-18T05:09:32.986Z,99.90
2022-11-18T05:12:20.355Z,99.90
2022-11-18T05:14:50.883Z,99.90
2022-11-18T05:17:20.525Z,99.90
2022-11-18T05:19:49.293Z,99.90
2022-11-18T05:22:19.493Z,99.90
2022-11-18T05:24:48.405Z,99.90
2022-11-18T05:27:17.589Z,99.90
2022-11-18T05:29:46.268Z,99.90
2022-11-18T05:32:14.903Z,99.90
2022-11-18T05:34:44.247Z,99.90
2022-11-18T05:37:13.201Z,99.90
2022-11-18T05:39:43.739Z,99.90
2022-11-18T05:42:29.977Z,99.90
2022-11-18T05:44:59.139Z,99.90
2022-11-18T05:47:28.166Z,99.90
2022-11-18T05:49:56.814Z,99.90
2022-11-18T05:52:25.446Z,99.90
2022-11-18T05:54:55.985Z,99.90
2022-11-18T05:57:24.727Z,99.90
2022-11-18T05:59:53.389Z,99.90
2022-11-18T06:02:25.503Z,99.90
2022-11-18T06:04:59.287Z,99.90
2022-11-18T06:07:31.542Z,99.90
2022-11-18T06:10:05.862Z,99.90
2022-11-18T06:12:38.739Z,99.90
2022-11-18T06:15:12.913Z,99.90
2022-11-18T06:17:44.471Z,99.90
2022-11-18T06:20:13.521Z,99.90
2022-11-18T06:22:46.547Z,99.90
2022-11-18T06:25:17.459Z,99.90
2022-11-18T06:27:46.994Z,99.90
2022-11-18T06:30:16.367Z,99.90
2022-11-18T06:32:45.052Z,99.90
2022-11-18T06:35:13.691Z,99.90
2022-11-18T06:37:42.392Z,99.90
2022-11-18T06:40:12.587Z,99.90
2022-11-18T06:42:59.833Z,99.90
2022-11-18T06:45:28.615Z,99.90
2022-11-18T06:47:57.473Z,99.90
2022-11-18T06:50:26.357Z,99.90
2022-11-18T06:52:55.629Z,99.90
2022-11-18T06:55:24.429Z,99.90
2022-11-18T06:57:56.880Z,99.90
2022-11-18T07:00:25.544Z,99.90
2022-11-18T07:02:54.238Z,99.90
2022-11-18T07:05:22.955Z,99.90
2022-11-18T07:07:51.769Z,99.90
2022-11-18T07:10:20.698Z,99.90
2022-11-18T07:12:49.391Z,99.90
2022-11-18T07:15:22.430Z,99.90
2022-11-18T07:17:52.415Z,99.90
2022-11-18T07:20:21.110Z,99.90
2022-11-18T07:22:53.430Z,99.90
2022-11-18T07:25:22.158Z,99.90
2022-11-18T07:27:50.841Z,99.90
2022-11-18T07:30:22.100Z,99.90
2022-11-18T07:32:50.832Z,99.90
2022-11-18T07:35:19.537Z,99.90
2022-11-18T07:37:48.242Z,99.90
2022-11-18T07:40:17.105Z,99.90
2022-11-18T07:42:45.804Z,99.90
2022-11-18T07:45:26.455Z,99.90
2022-11-18T07:47:55.210Z,99.90
2022-11-18T07:50:23.871Z,99.90
2022-11-18T07:52:52.720Z,99.90
2022-11-18T07:55:21.444Z,99.90
2022-11-18T07:57:50.106Z,99.90
2022-11-18T08:00:19.897Z,99.90
2022-11-18T08:02:52.929Z,99.90
2022-11-18T08:05:21.777Z,99.90
2022-11-18T08:07:50.329Z,99.90
2022-11-18T08:10:18.877Z,99.90
2022-11-18T08:12:47.611Z,99.90
2022-11-18T08:15:16.422Z,99.90
2022-11-18T08:17:45.109Z,99.90
2022-11-18T08:20:15.706Z,99.90
2022-11-18T08:22:44.444Z,99.90
2022-11-18T08:25:13.433Z,99.90
2022-11-18T08:27:42.194Z,99.90
2022-11-18T08:30:12.209Z,99.90
2022-11-18T08:32:40.855Z,99.90
2022-11-18T08:35:11.483Z,99.90
2022-11-18T08:37:41.916Z,99.90
2022-11-18T08:40:11.444Z,99.90
2022-11-18T08:42:40.231Z,99.90
2022-11-18T08:45:09.624Z,99.90
2022-11-18T08:47:38.652Z,99.90
2022-11-18T08:50:09.432Z,99.90
2022-11-18T08:52:38.436Z,99.90
2022-11-18T08:55:09.185Z,99.90
2022-11-18T08:57:37.848Z,99.90
2022-11-18T09:00:08.400Z,99.90
2022-11-18T09:02:37.321Z,99.90
2022-11-18T09:05:06.556Z,99.90
2022-11-18T09:07:35.374Z,99.90
2022-11-18T09:10:04.287Z,99.90
2022-11-18T09:12:34.552Z,99.90
2022-11-18T09:15:18.905Z,99.90
2022-11-18T09:17:47.736Z,99.90
2022-11-18T09:20:16.810Z,99.90
2022-11-18T09:22:45.854Z,99.90
2022-11-18T09:25:14.569Z,99.90
2022-11-18T09:27:44.661Z,99.90
2022-11-18T09:30:13.647Z,99.90
2022-11-18T09:32:42.287Z,99.90
2022-11-18T09:35:10.923Z,99.90
2022-11-18T09:37:39.595Z,99.90
2022-11-18T09:40:15.065Z,99.90
2022-11-18T09:42:58.068Z,99.90
2022-11-18T09:45:30.011Z,99.90
2022-11-18T09:48:00.470Z,99.90
2022-11-18T09:53:21.676Z,99.90
2022-11-18T09:55:51.602Z,99.90
2022-11-18T09:58:29.700Z,99.90
2022-11-18T10:00:58.409Z,99.90
2022-11-18T10:03:30.091Z,99.90
2022-11-18T10:06:07.356Z,99.90
2022-11-18T10:08:44.253Z,99.90
2022-11-18T10:11:18.201Z,99.90
2022-11-18T10:13:57.844Z,99.90
2022-11-18T10:16:43.810Z,99.90
2022-11-18T10:19:26.691Z,99.90
2022-11-18T10:22:09.944Z,99.90
2022-11-18T10:24:47.106Z,99.90
2022-11-18T10:27:17.292Z,99.90
2022-11-18T10:29:54.247Z,99.90
2022-11-18T10:32:23.394Z,99.90
2022-11-18T10:34:53.940Z,99.90
2022-11-18T10:40:27.741Z,99.90
2022-11-18T10:42:56.948Z,99.90
2022-11-18T10:45:29.679Z,99.90
2022-11-18T10:48:08.301Z,99.90
2022-11-18T10:50:39.217Z,99.90
2022-11-18T10:53:32.627Z,99.90
2022-11-18T10:56:03.100Z,99.90
2022-11-18T10:58:34.109Z,99.90
2022-11-18T11:01:21.255Z,99.90
2022-11-18T11:03:58.493Z,99.90
2022-11-18T11:06:38.156Z,99.90
2022-11-18T11:09:09.927Z,99.90
2022-11-18T11:11:43.475Z,99.90
2022-11-18T11:14:21.652Z,99.90
2022-11-18T11:16:59.452Z,99.90
2022-11-18T11:19:38.532Z,99.90
2022-11-18T11:22:11.641Z,99.90
2022-11-18T11:24:41.132Z,99.90
2022-11-18T11:30:23.923Z,99.90
2022-11-18T11:33:24.232Z,99.90
2022-11-18T11:36:02.837Z,99.90
2022-11-18T11:38:43.010Z,99.90
2022-11-18T11:41:23.127Z,99.90
2022-11-18T11:44:13.770Z,63.60
2022-11-18T11:47:09.810Z,49.60
2022-11-18T11:49:53.448Z,54.90
2022-11-18T11:52:33.219Z,37.20
2022-11-18T11:55:17.072Z,17.30
2022-11-18T11:58:03.546Z,6.20
2022-11-18T12:00:36.735Z,15.00
2022-11-18T12:03:23.717Z,56.10
2022-11-18T12:05:53.744Z,87.20
2022-11-18T12:08:25.660Z,46.70
2022-11-18T12:10:58.528Z,30.30
2022-11-18T12:13:38.765Z,44.10
2022-11-18T12:16:21.567Z,50.30
2022-11-18T12:18:55.519Z,66.50
2022-11-18T12:22:00.586Z,76.80
2022-11-18T12:24:32.474Z,35.70
2022-11-18T12:27:02.249Z,57.70
2022-11-18T12:29:38.289Z,45.10
2022-11-18T12:32:26.777Z,53.30
2022-11-18T12:35:01.003Z,12.80
2022-11-18T12:37:58.039Z,1.00
2022-11-18T12:40:50.590Z,1.00
2022-11-18T12:44:01.351Z,1.00
2022-11-18T12:46:50.399Z,3.80
2022-11-18T12:50:01.961Z,7.00
2022-11-18T12:52:54.790Z,1.80
2022-11-18T12:55:33.206Z,1.00
2022-11-18T12:58:01.880Z,1.00
2022-11-18T13:00:33.312Z,1.00
2022-11-18T13:03:02.997Z,1.00
2022-11-18T13:05:33.797Z,2.10
2022-11-18T13:08:17.440Z,13.80
2022-11-18T13:10:54.712Z,22.90
2022-11-18T13:13:31.266Z,31.10
2022-11-18T13:16:22.751Z,51.90
2022-11-18T13:18:53.096Z,68.60
2022-11-18T13:21:38.087Z,78.60
2022-11-18T13:24:08.932Z,95.70
2022-11-18T13:26:41.715Z,98.00
2022-11-18T13:29:33.470Z,95.80
2022-11-18T13:32:16.012Z,90.30
2022-11-18T13:34:48.835Z,79.50
2022-11-18T13:37:21.189Z,74.10
2022-11-18T13:39:51.585Z,66.00
2022-11-18T13:42:22.898Z,58.40
2022-11-18T13:44:56.273Z,64.00
2022-11-18T13:47:33.409Z,54.30
2022-11-18T13:50:07.303Z,79.40
2022-11-18T13:52:41.662Z,89.40
2022-11-18T13:55:19.862Z,65.70
2022-11-18T13:57:51.062Z,73.70
2022-11-18T14:00:24.014Z,48.20
2022-11-18T14:02:57.884Z,24.60
2022-11-18T14:05:27.308Z,15.80
2022-11-18T14:08:01.572Z,24.00
2022-11-18T14:10:42.058Z,29.10
2022-11-18T14:13:23.747Z,28.40
2022-11-18T14:15:52.432Z,22.60
2022-11-18T14:18:25.164Z,23.50
2022-11-18T14:20:56.281Z,11.60
2022-11-18T14:23:30.046Z,1.00
2022-11-18T14:26:02.269Z,1.00
2022-11-18T14:28:34.108Z,1.00
2022-11-18T14:31:06.736Z,1.00
2022-11-18T14:33:37.242Z,1.00
2022-11-18T14:36:12.565Z,1.00
2022-11-18T14:39:04.468Z,1.00
2022-11-18T14:41:49.758Z,3.90
2022-11-18T14:44:19.228Z,26.20
2022-11-18T14:46:52.402Z,30.00
2022-11-18T14:49:23.588Z,37.50
2022-11-18T14:51:53.221Z,40.90
2022-11-18T14:54:26.910Z,49.40
2022-11-18T14:57:01.509Z,63.90
2022-11-18T14:59:30.739Z,80.60
2022-11-18T15:01:59.803Z,89.90
2022-11-18T15:04:28.701Z,89.30
2022-11-18T15:06:57.455Z,88.90
2022-11-18T15:09:26.281Z,91.80
2022-11-18T15:11:55.068Z,93.60
2022-11-18T15:14:25.502Z,99.90
2022-11-18T15:16:54.321Z,99.90
2022-11-18T15:19:23.214Z,99.90
2022-11-18T15:21:52.078Z,99.90
2022-11-18T15:24:20.905Z,99.90
2022-11-18T15:26:50.483Z,99.90
2022-11-18T15:29:20.961Z,99.90
2022-11-18T15:31:51.435Z,99.90
2022-11-18T15:34:21.817Z,99.90
2022-11-18T15:36:51.059Z,99.90
2022-11-18T15:39:19.849Z,99.90
2022-11-18T15:41:48.461Z,99.90
2022-11-18T15:44:17.704Z,99.90
2022-11-18T15:46:48.149Z,99.90
2022-11-18T15:49:18.813Z,99.90
2022-11-18T15:51:47.497Z,99.90
2022-11-18T15:54:16.412Z,99.90
2022-11-18T15:56:45.617Z,99.90
2022-11-18T15:59:15.256Z,99.90
2022-11-18T16:01:45.519Z,99.90
2022-11-18T16:04:16.827Z,99.90
2022-11-18T16:06:47.595Z,99.90
2022-11-18T16:09:18.055Z,99.90
2022-11-18T16:12:04.282Z,99.90
2022-11-18T16:14:33.150Z,99.90
2022-11-18T16:17:01.891Z,99.90
2022-11-18T16:19:33.673Z,99.90
2022-11-18T16:22:03.994Z,99.90
2022-11-18T16:24:32.755Z,99.90
2022-11-18T16:27:04.508Z,99.90
2022-11-18T16:29:33.564Z,99.90
2022-11-18T16:32:01.290Z,99.80
2022-11-18T16:34:30.321Z,65.60
2022-11-18T16:37:01.426Z,52.10
2022-11-18T16:39:31.565Z,51.20
2022-11-18T16:42:08.500Z,57.20
2022-11-18T16:44:38.098Z,59.00
2022-11-18T16:47:14.309Z,60.80
2022-11-18T16:49:44.195Z,53.20
2022-11-18T16:52:13.338Z,59.20
2022-11-18T16:54:46.000Z,59.40
2022-11-18T16:57:15.680Z,67.60
2022-11-18T16:59:44.534Z,82.90
2022-11-18T17:02:14.480Z,99.10
2022-11-18T17:04:44.043Z,97.00
2022-11-18T17:07:12.923Z,96.10
2022-11-18T17:09:43.131Z,97.30
2022-11-18T17:12:11.700Z,98.20
2022-11-18T17:14:40.435Z,91.80
2022-11-18T17:17:09.464Z,80.20
2022-11-18T17:19:38.072Z,91.20
2022-11-18T17:22:06.837Z,96.80
2022-11-18T17:24:35.449Z,98.70
2022-11-18T17:27:05.767Z,99.90
2022-11-18T17:29:34.771Z,99.90
2022-11-18T17:32:03.424Z,92.20
2022-11-18T17:34:32.026Z,85.30
2022-11-18T17:37:06.485Z,89.30
2022-11-18T17:39:35.644Z,76.80
2022-11-18T17:42:15.283Z,71.30
2022-11-18T17:44:43.932Z,77.50
2022-11-18T17:47:12.463Z,91.70
2022-11-18T17:49:41.163Z,92.10
2022-11-18T17:52:09.974Z,99.90
2022-11-18T17:54:40.297Z,99.50
2022-11-18T17:57:15.920Z,99.90
2022-11-18T17:59:44.571Z,85.70
2022-11-18T18:02:13.884Z,47.60
2022-11-18T18:04:42.631Z,46.70
2022-11-18T18:07:11.282Z,60.60
2022-11-18T18:09:39.995Z,65.00
2022-11-18T18:12:22.702Z,70.30
2022-11-18T18:14:53.011Z,73.70
2022-11-18T18:17:21.665Z,56.30
2022-11-18T18:19:50.283Z,34.00
2022-11-18T18:22:18.860Z,23.10
2022-11-18T18:24:47.529Z,18.60
2022-11-18T18:27:16.339Z,32.50
2022-11-18T18:29:44.867Z,57.30
2022-11-18T18:32:15.119Z,72.50
2022-11-18T18:34:43.692Z,93.70
2022-11-18T18:37:12.242Z,99.90
2022-11-18T18:39:40.876Z,99.90
2022-11-18T18:42:09.607Z,99.90
2022-11-18T18:44:56.100Z,99.90
2022-11-18T18:47:26.242Z,99.90
2022-11-18T18:49:55.085Z,99.90
2022-11-18T18:52:23.671Z,99.90
2022-11-18T18:54:52.391Z,99.90
2022-11-18T18:57:21.001Z,99.90
2022-11-18T18:59:49.586Z,99.90
2022-11-18T19:02:18.289Z,99.90
2022-11-18T19:04:48.413Z,99.90
2022-11-18T19:07:17.448Z,99.90
2022-11-18T19:09:46.124Z,99.90
2022-11-18T19:12:35.385Z,99.90
2022-11-18T19:15:05.013Z,99.90
2022-11-18T19:17:33.854Z,99.90
2022-11-18T19:20:21.459Z,99.90
2022-11-18T19:22:50.310Z,99.90
2022-11-18T19:25:19.288Z,99.90
2022-11-18T19:27:48.018Z,99.90
2022-11-18T19:30:18.023Z,99.90
2022-11-18T19:32:46.790Z,99.90
2022-11-18T19:35:17.392Z,99.90
2022-11-18T19:37:47.179Z,99.90
2022-11-18T19:40:16.193Z,99.90
2022-11-18T19:42:44.904Z,99.90
2022-11-18T19:45:13.799Z,99.90
2022-11-18T19:47:42.681Z,99.90
2022-11-18T19:50:11.835Z,99.90
2022-11-18T19:52:42.878Z,99.90
2022-11-18T19:55:14.700Z,99.90
2022-11-18T19:57:43.520Z,99.90
2022-11-18T20:00:13.339Z,97.50
2022-11-18T20:02:43.577Z,97.20
2022-11-18T20:05:29.385Z,93.80
2022-11-18T20:07:59.609Z,75.50
2022-11-18T20:10:28.598Z,62.40
2022-11-18T20:12:57.853Z,52.10
2022-11-18T20:15:27.181Z,68.40
2022-11-18T20:17:55.955Z,85.30
2022-11-18T20:20:24.647Z,54.90
2022-11-18T20:22:55.234Z,40.80
2022-11-18T20:25:25.488Z,29.60
2022-11-18T20:27:54.492Z,3.50
2022-11-18T20:30:23.646Z,1.00
2022-11-18T20:32:53.027Z,1.00
2022-11-18T20:35:22.903Z,1.00
2022-11-18T20:37:51.684Z,1.00
2022-11-18T20:40:20.517Z,1.00
2022-11-18T20:43:08.270Z,1.00
2022-11-18T20:45:37.013Z,1.00
2022-11-18T20:48:06.245Z,1.00
2022-11-18T20:50:37.717Z,1.00
2022-11-18T20:53:06.852Z,1.00
2022-11-18T20:55:39.388Z,1.00
2022-11-18T20:58:09.733Z,1.00
2022-11-18T21:00:38.385Z,1.00
2022-11-18T21:03:07.240Z,1.00
2022-11-18T21:05:36.871Z,1.00
2022-11-18T21:08:06.126Z,1.00
2022-11-18T21:10:35.730Z,1.00
2022-11-18T21:13:22.139Z,1.00
2022-11-18T21:15:52.190Z,1.00
2022-11-18T21:18:20.913Z,1.00
2022-11-18T21:21:07.348Z,1.00
2022-11-18T21:23:36.025Z,1.00
2022-11-18T21:26:08.044Z,1.00
2022-11-18T21:28:40.518Z,1.00
2022-11-18T21:31:11.821Z,1.00
2022-11-18T21:33:40.731Z,1.00
2022-11-18T21:36:09.932Z,1.00
2022-11-18T21:38:38.778Z,1.00
2022-11-18T21:41:08.316Z,1.00
2022-11-18T21:44:06.765Z,1.00
2022-11-18T21:46:28.883Z,1.00
2022-11-18T21:49:00.393Z,1.00
2022-11-18T21:51:31.551Z,1.00
2022-11-18T21:54:00.644Z,1.00
2022-11-18T21:56:31.761Z,1.00
2022-11-18T21:59:02.181Z,1.00
2022-11-18T22:01:34.225Z,1.00
2022-11-18T22:04:05.010Z,1.00
2022-11-18T22:06:35.272Z,1.00
2022-11-18T22:09:06.143Z,1.00
2022-11-18T22:11:34.784Z,1.00
2022-11-18T22:14:04.549Z,1.00
2022-11-18T22:16:34.636Z,1.00
2022-11-18T22:19:08.035Z,1.00
2022-11-18T22:21:37.143Z,1.00
2022-11-18T22:24:06.018Z,1.00
2022-11-18T22:26:34.634Z,1.00
2022-11-18T22:29:03.252Z,1.00
2022-11-18T22:31:33.437Z,1.00
2022-11-18T22:34:02.062Z,1.00
2022-11-18T22:36:30.716Z,1.00
2022-11-18T22:38:59.470Z,1.00
2022-11-18T22:41:47.269Z,1.00
2022-11-18T22:44:18.014Z,1.00
2022-11-18T22:46:47.998Z,1.00
2022-11-18T22:49:16.840Z,1.00
2022-11-18T22:51:45.713Z,1.00
2022-11-18T22:57:03.028Z,1.00
2022-11-18T22:59:31.650Z,1.00
2022-11-18T23:02:02.825Z,1.00
2022-11-18T23:04:31.450Z,1.00
2022-11-18T23:07:00.013Z,1.00
2022-11-18T23:09:28.953Z,1.00
2022-11-18T23:12:15.148Z,1.00
2022-11-18T23:14:43.830Z,1.00
2022-11-18T23:17:14.268Z,1.00
2022-11-18T23:19:44.144Z,1.00
2022-11-18T23:22:13.061Z,1.00
2022-11-18T23:24:41.794Z,1.00
2022-11-18T23:27:10.639Z,1.00
2022-11-18T23:29:39.304Z,1.00
2022-11-18T23:32:08.065Z,1.00
2022-11-18T23:34:38.227Z,1.00
2022-11-18T23:37:06.860Z,1.00
2022-11-18T23:39:37.377Z,1.00
2022-11-18T23:42:06.465Z,1.00
2022-11-18T23:44:47.380Z,1.00
2022-11-18T23:47:16.284Z,1.00
2022-11-18T23:49:46.343Z,1.00
2022-11-18T23:52:15.076Z,1.00
2022-11-18T23:54:43.791Z,1.00
2022-11-18T23:57:12.472Z,1.00
2022-11-18T23:59:41.029Z,1.00
